createdAt,value
2019-06-08T04:43:07.716Z,14.80
2019-06-08T04:45:38.705Z,14.70
2019-06-08T04:48:11.025Z,14.70
2019-06-08T04:50:40.879Z,14.80
2019-06-08T04:53:10.610Z,14.70
2019-06-08T04:55:40.947Z,14.80
2019-06-08T04:58:10.709Z,14.80
2019-06-08T05:00:41.392Z,14.80
2019-06-08T05:03:11.545Z,14.80
2019-06-08T05:05:41.140Z,14.90
2019-06-08T05:08:10.612Z,14.80
2019-06-08T05:10:41.269Z,14.80
2019-06-08T05:13:12.728Z,14.80
2019-06-08T05:15:43.026Z,14.80
2019-06-08T05:18:12.877Z,14.80
2019-06-08T05:20:45.482Z,14.70
2019-06-08T05:23:14.391Z,14.70
2019-06-08T05:25:43.674Z,14.70
2019-06-08T05:28:12.951Z,14.70
2019-06-08T05:30:43.227Z,14.80
2019-06-08T05:33:12.859Z,14.80
2019-06-08T05:35:43.361Z,14.80
2019-06-08T05:38:12.848Z,14.90
2019-06-08T05:40:42.134Z,14.90
2019-06-08T05:43:11.352Z,14.90
2019-06-08T05:45:43.566Z,15.00
2019-06-08T05:48:13.235Z,15.00
2019-06-08T05:50:58.783Z,15.00
2019-06-08T05:53:13.880Z,15.00
2019-06-08T05:55:43.877Z,15.00
2019-06-08T05:58:13.270Z,15.00
2019-06-08T06:00:46.273Z,15.10
2019-06-08T06:03:15.692Z,15.00
2019-06-08T06:05:45.009Z,15.10
2019-06-08T06:08:18.836Z,15.00
2019-06-08T06:10:46.792Z,15.10
2019-06-08T06:13:16.372Z,15.10
2019-06-08T06:15:47.197Z,15.10
2019-06-08T06:18:16.579Z,15.10
2019-06-08T06:20:47.299Z,15.20
2019-06-08T06:23:16.713Z,15.20
2019-06-08T06:25:45.989Z,15.20
2019-06-08T06:28:15.523Z,15.20
2019-06-08T06:30:46.659Z,15.20
2019-06-08T06:33:16.155Z,15.20
2019-06-08T06:35:48.367Z,15.20
2019-06-08T06:38:17.817Z,15.30
2019-06-08T06:40:48.077Z,15.30
2019-06-08T06:43:17.612Z,15.40
2019-06-08T06:45:48.050Z,15.40
2019-06-08T06:48:23.419Z,15.50
2019-06-08T06:50:52.571Z,15.60
2019-06-08T06:53:22.331Z,15.60
2019-06-08T06:55:51.619Z,15.70
2019-06-08T06:58:20.935Z,15.70
2019-06-08T07:00:51.309Z,15.80
2019-06-08T07:03:24.827Z,15.90
2019-06-08T07:05:57.337Z,15.90
2019-06-08T07:08:26.665Z,16.00
2019-06-08T07:10:55.967Z,16.00
2019-06-08T07:13:25.619Z,16.10
2019-06-08T07:15:58.099Z,16.10
2019-06-08T07:18:26.300Z,16.10
2019-06-08T07:20:55.631Z,16.20
2019-06-08T07:23:24.861Z,16.10
2019-06-08T07:25:54.532Z,16.00
2019-06-08T07:28:26.330Z,16.00
2019-06-08T07:30:55.825Z,15.90
2019-06-08T07:33:25.199Z,16.10
2019-06-08T07:35:55.321Z,16.10
2019-06-08T07:38:24.851Z,16.10
2019-06-08T07:40:57.900Z,16.10
2019-06-08T07:43:24.994Z,16.10
2019-06-08T07:45:54.588Z,16.20
2019-06-08T07:48:23.876Z,16.20
2019-06-08T07:50:54.243Z,16.20
2019-06-08T07:53:24.029Z,16.30
2019-06-08T07:55:57.017Z,16.40
2019-06-08T07:58:26.328Z,16.40
2019-06-08T08:01:00.719Z,16.60
2019-06-08T08:03:26.619Z,16.80
2019-06-08T08:05:56.700Z,16.80
2019-06-08T08:08:26.333Z,16.90
2019-06-08T08:10:56.730Z,17.00
2019-06-08T08:13:26.434Z,17.20
2019-06-08T08:15:58.605Z,17.30
2019-06-08T08:18:26.959Z,17.30
2019-06-08T08:21:04.324Z,17.40
2019-06-08T08:23:30.130Z,17.50
2019-06-08T08:26:01.687Z,17.60
2019-06-08T08:28:31.447Z,17.60
2019-06-08T08:31:02.933Z,17.70
2019-06-08T08:33:32.235Z,17.60
2019-06-08T08:36:02.061Z,17.70
2019-06-08T08:38:31.416Z,17.60
2019-06-08T08:41:10.047Z,17.70
2019-06-08T08:43:37.723Z,17.80
2019-06-08T08:46:07.686Z,17.80
2019-06-08T08:48:37.788Z,17.80
2019-06-08T08:51:08.560Z,17.90
2019-06-08T08:53:38.012Z,18.10
2019-06-08T08:56:07.475Z,18.10
2019-06-08T08:58:39.367Z,18.30
2019-06-08T09:01:08.875Z,18.40
2019-06-08T09:03:39.601Z,18.40
2019-06-08T09:06:09.137Z,18.30
2019-06-08T09:08:38.459Z,18.50
2019-06-08T09:11:08.300Z,18.60
2019-06-08T09:13:37.918Z,18.70
2019-06-08T09:16:08.178Z,18.50
2019-06-08T09:18:37.755Z,18.90
2019-06-08T09:21:10.163Z,19.10
2019-06-08T09:23:39.882Z,19.60
2019-06-08T09:26:12.837Z,19.70
2019-06-08T09:28:40.576Z,20.00
2019-06-08T09:31:14.147Z,20.00
2019-06-08T09:33:53.250Z,20.10
2019-06-08T09:36:17.541Z,20.10
2019-06-08T09:38:48.725Z,20.10
2019-06-08T09:41:21.767Z,20.30
2019-06-08T09:43:53.859Z,20.40
2019-06-08T09:46:23.071Z,20.40
2019-06-08T09:48:54.022Z,20.60
2019-06-08T09:51:23.405Z,20.90
2019-06-08T09:53:54.201Z,20.70
2019-06-08T09:56:24.077Z,20.70
2019-06-08T09:58:55.908Z,21.00
2019-06-08T10:01:24.561Z,21.30
2019-06-08T10:03:54.346Z,21.50
2019-06-08T10:06:26.995Z,21.50
2019-06-08T10:08:56.413Z,21.20
2019-06-08T10:11:27.920Z,21.40
2019-06-08T10:13:59.864Z,21.50
2019-06-08T10:16:30.568Z,21.80
2019-06-08T10:19:03.179Z,22.40
2019-06-08T10:21:30.110Z,22.10
2019-06-08T10:24:04.685Z,21.90
2019-06-08T10:26:37.526Z,21.60
2019-06-08T10:29:10.413Z,21.30
2019-06-08T10:31:44.098Z,20.80
2019-06-08T10:34:13.422Z,21.20
2019-06-08T10:36:42.924Z,21.40
2019-06-08T10:39:12.274Z,21.20
2019-06-08T10:41:41.821Z,21.10
2019-06-08T10:44:13.904Z,21.20
2019-06-08T10:46:42.069Z,21.00
2019-06-08T10:49:14.371Z,21.00
2019-06-08T10:51:43.190Z,21.20
2019-06-08T10:54:12.641Z,21.30
2019-06-08T10:56:42.207Z,21.60
2019-06-08T10:59:12.920Z,21.70
2019-06-08T11:01:42.615Z,21.70
2019-06-08T11:04:15.572Z,21.70
2019-06-08T11:06:44.874Z,21.90
2019-06-08T11:09:19.259Z,22.00
2019-06-08T11:11:48.981Z,22.00
2019-06-08T11:14:20.512Z,22.20
2019-06-08T11:16:49.339Z,22.40
2019-06-08T11:19:18.759Z,22.60
2019-06-08T11:21:48.423Z,22.70
2019-06-08T11:24:24.141Z,23.00
2019-06-08T11:26:48.772Z,23.10
2019-06-08T11:29:18.797Z,22.90
2019-06-08T11:31:50.982Z,23.00
2019-06-08T11:34:21.791Z,22.90
2019-06-08T11:36:51.741Z,22.90
2019-06-08T11:39:22.947Z,23.00
2019-06-08T11:41:52.285Z,23.30
2019-06-08T11:44:21.502Z,23.30
2019-06-08T11:46:50.806Z,23.50
2019-06-08T11:49:22.180Z,23.40
2019-06-08T11:51:51.483Z,22.90
2019-06-08T11:54:33.012Z,22.60
2019-06-08T11:56:54.466Z,22.80
2019-06-08T11:59:25.608Z,22.50
2019-06-08T12:01:54.947Z,22.40
2019-06-08T12:04:24.452Z,22.50
2019-06-08T12:06:53.813Z,22.40
2019-06-08T12:09:23.128Z,22.80
